Time;durP1;ratioP1;P1;durP2;ratioP2;P2;SDS_P1;SDS_P2;PMS_P1;PMS_P2;Temp;Humidity;BMP_temperature;BMP_pressure;BME280_temperature;BME280_humidity;BME280_pressure;Samples;Min_cycle;Max_cycle;Signal;HPM_P1;HPM_P2
2023/05/03 00:01:01;;;;;;;;;;;;;;;;;;;;;
2023/05/03 00:05:13;;;;;;;7.47;3.83;;;6.50;99.90;;;;;;10068592;23;20196;-71
2023/05/03 00:10:28;;;;;;;5.20;3.13;;;6.30;99.90;;;;;;10066328;23;20165;-71
2023/05/03 00:15:10;;;;;;;8.53;3.50;;;6.20;99.90;;;;;;9870385;23;20237;-70
2023/05/03 00:19:28;;;;;;;8.00;3.37;;;6.00;99.90;;;;;;9836181;24;20347;-71
2023/05/03 00:23:40;;;;;;;6.27;3.07;;;5.80;99.90;;;;;;9786433;24;20208;-69
2023/05/03 00:27:43;;;;;;;6.77;3.43;;;5.60;99.90;;;;;;9800700;24;20164;-70
2023/05/03 00:36:56;;;;;;;7.83;3.17;;;5.30;99.90;;;;;;9842941;23;20168;-71
2023/05/03 00:41:06;;;;;;;7.97;3.53;;;5.30;99.90;;;;;;9864066;24;20199;-71
2023/05/03 00:45:10;;;;;;;6.83;3.27;;;5.30;99.90;;;;;;9882216;24;20202;-71
2023/05/03 00:49:40;;;;;;;11.43;4.40;;;5.10;99.90;;;;;;9919000;23;20162;-71
2023/05/03 00:54:07;;;;;;;6.57;4.07;;;5.10;99.90;;;;;;9947900;23;20169;-71
2023/05/03 00:58:18;;;;;;;7.37;3.33;;;5.00;99.90;;;;;;9950909;23;20173;-70
2023/05/03 01:02:28;;;;;;;5.40;3.10;;;4.90;99.90;;;;;;10104203;23;20248;-70
2023/05/03 01:07:20;;;;;;;6.73;2.90;;;4.70;99.90;;;;;;10145571;23;20163;-71
2023/05/03 01:11:52;;;;;;;6.13;3.47;;;4.60;99.90;;;;;;10111846;23;20181;-73
2023/05/03 01:16:27;;;;;;;7.90;3.73;;;4.50;1.00;;;;;;10148804;23;20175;-71
2023/05/03 01:20:52;;;;;;;6.67;3.67;;;4.50;1.00;;;;;;10147108;23;20167;-71
2023/05/03 01:25:35;;;;;;;7.43;3.40;;;4.50;1.00;;;;;;10147393;23;20264;-71
2023/05/03 01:29:54;;;;;;;8.67;3.70;;;4.40;1.00;;;;;;10131435;23;20163;-69
2023/05/03 01:34:33;;;;;;;6.77;4.03;;;4.30;1.00;;;;;;10144596;23;20158;-70
2023/05/03 01:39:08;;;;;;;6.00;3.60;;;4.20;1.00;;;;;;10144234;23;20163;-69
2023/05/03 01:43:50;;;;;;;;;;;;;;;;;;;;;
2023/05/03 01:48:43;;;;;;;8.53;3.77;;;3.90;1.00;;;;;;10018930;23;20161;-69
2023/05/03 01:58:12;;;;;;;;;;;;;;;;;;;;;
2023/05/03 02:06:59;;;;;;;5.77;3.73;;;4.00;1.00;;;;;;10175770;23;20242;-69
2023/05/03 02:11:33;;;;;;;;;;;;;;;;;;;;;
2023/05/03 02:15:46;;;;;;;7.60;3.67;;;3.80;1.00;;;;;;10168092;23;20155;-69
2023/05/03 02:20:41;;;;;;;;;;;;;;;;;;;;;
2023/05/03 02:24:38;;;;;;;6.63;3.60;;;3.70;23.60;;;;;;10166288;23;20183;-69
2023/05/03 02:28:52;;;;;;;3.93;3.40;;;3.50;17.50;;;;;;10144631;23;20178;-70
2023/05/03 02:33:24;;;;;;;5.97;3.90;;;3.40;97.20;;;;;;10172345;23;20150;-70
2023/05/03 02:37:53;;;;;;;5.50;3.53;;;3.40;99.90;;;;;;10113908;23;20170;-71
2023/05/03 02:42:01;;;;;;;6.87;3.70;;;3.30;99.90;;;;;;10122034;23;20171;-70
2023/05/03 02:51:51;;;;;;;8.77;3.80;;;3.10;99.90;;;;;;10170809;23;20167;-69
2023/05/03 02:56:08;;;;;;;5.80;3.60;;;3.20;99.90;;;;;;10010845;23;20166;-72
2023/05/03 03:00:28;;;;;;;8.07;4.10;;;3.30;99.90;;;;;;10045581;23;20162;-71
2023/05/03 03:04:38;;;;;;;9.60;4.00;;;3.40;99.90;;;;;;10099986;23;20208;-70
2023/05/03 03:09:13;;;;;;;;;;;;;;;;;;;;;
2023/05/03 03:13:40;;;;;;;;;;;;;;;;;;;;;
2023/05/03 03:17:44;;;;;;;11.23;4.80;;;3.90;99.90;;;;;;10124721;23;20155;-70
2023/05/03 03:21:59;;;;;;;10.03;4.10;;;4.10;63.80;;;;;;10123427;23;20159;-71
2023/05/03 03:26:26;;;;;;;6.17;4.37;;;4.20;1.00;;;;;;10119598;23;20193;-70
2023/05/03 03:36:06;;;;;;;9.40;4.13;;;4.40;1.00;;;;;;10087010;23;20160;-69
2023/05/03 03:40:13;;;;;;;5.90;3.50;;;4.40;1.00;;;;;;9886828;24;20175;-70
2023/05/03 03:44:14;;;;;;;9.67;3.90;;;4.40;1.00;;;;;;9883868;24;20203;-69
2023/05/03 03:48:37;;;;;;;6.20;3.70;;;4.50;99.90;;;;;;9874904;23;20162;-71
2023/05/03 03:52:41;;;;;;;4.27;3.27;;;4.50;99.90;;;;;;9909825;23;20168;-71
2023/05/03 03:57:30;;;;;;;6.37;3.50;;;4.50;99.90;;;;;;9930839;23;20166;-70
2023/05/03 04:01:54;;;;;;;5.37;3.00;;;4.60;1.00;;;;;;9935252;23;20158;-70
2023/05/03 04:10:50;;;;;;;7.30;3.30;;;4.90;99.90;;;;;;9981302;23;20157;-70
2023/05/03 04:15:33;;;;;;;8.77;4.40;;;5.00;99.90;;;;;;9981144;23;20170;-71
2023/05/03 04:24:30;;;;;;;6.17;3.57;;;5.30;99.90;;;;;;9889892;23;20304;-70
2023/05/03 04:29:10;;;;;;;8.27;4.27;;;5.40;99.90;;;;;;10049681;23;20160;-70
2023/05/03 04:33:49;;;;;;;;;;;;;;;;;;;;;
2023/05/03 04:38:27;;;;;;;5.90;4.43;;;5.60;99.90;;;;;;10045474;23;20164;-70
2023/05/03 04:43:00;;;;;;;7.83;4.40;;;5.80;99.90;;;;;;10087519;23;20160;-71
2023/05/03 04:47:17;;;;;;;12.00;4.03;;;6.00;99.90;;;;;;10088373;23;20164;-71
2023/05/03 04:51:31;;;;;;;;;;;;;;;;;;;;;
2023/05/03 04:55:57;;;;;;;;;;;;;;;;;;;;;
2023/05/03 05:00:27;;;;;;;7.30;3.60;;;6.40;99.90;;;;;;10121633;23;20249;-69
2023/05/03 05:15:03;;;;;;;8.27;3.97;;;7.00;99.90;;;;;;10000499;23;20165;-71
2023/05/03 05:19:18;;;;;;;;;;;;;;;;;;;;;
2023/05/03 05:28:52;;;;;;;7.50;4.10;;;7.10;99.90;;;;;;9972758;23;20193;-70
2023/05/03 05:38:05;;;;;;;5.87;3.93;;;7.50;99.90;;;;;;9929670;23;20173;-71
2023/05/03 06:54:22;;;;;;;;;;;;;;;;;;;;;
2023/05/03 07:29:32;;;;;;;6.13;2.40;;;14.10;1.00;;;;;;9692848;24;20188;-72
2023/05/03 09:52:40;;;;;;;;;;;;;;;;;;;;;
2023/05/03 09:57:56;;;;;;;3.70;1.57;;;14.20;1.00;;;;;;9669039;24;20185;-69
2023/05/03 13:31:26;;;;;;;;;;;;;;;;;;;;;
2023/05/03 13:36:21;;;;;;;2.97;1.50;;;16.80;1.00;;;;;;9912965;23;20189;-71
2023/05/03 16:12:58;;;;;;;;;;;;;;;;;;;;;
2023/05/03 16:22:59;;;;;;;;;;;;;;;;;;;;;
2023/05/03 16:28:02;;;;;;;;;;;;;;;;;;;;;
2023/05/03 16:48:27;;;;;;;4.10;1.70;;;14.90;1.00;;;;;;9747518;24;20173;-71
2023/05/03 16:58:15;;;;;;;6.30;2.80;;;14.80;1.00;;;;;;9815579;23;20166;-68
2023/05/03 17:02:56;;;;;;;2.60;1.50;;;14.80;1.00;;;;;;9872896;22;20203;-69
2023/05/03 17:07:46;;;;;;;;;;;;;;;;;;;;;
2023/05/03 17:21:23;;;;;;;14.70;10.30;;;14.40;1.00;;;;;;10077880;23;20186;-69
2023/05/03 17:31:11;;;;;;;26.50;17.33;;;14.30;1.00;;;;;;10056502;23;20192;-68
2023/05/03 17:35:14;;;;;;;8.87;5.67;;;14.90;1.00;;;;;;10004558;23;20197;-69
2023/05/03 17:39:15;;;;;;;26.00;11.03;;;15.40;1.00;;;;;;10041170;23;20168;-68
2023/05/03 17:43:22;;;;;;;24.50;11.60;;;15.70;1.00;;;;;;10082321;23;20213;-67
2023/05/03 17:48:10;;;;;;;58.03;23.57;;;16.00;1.00;;;;;;10225058;22;20246;-69
2023/05/03 17:52:34;;;;;;;57.27;25.67;;;16.10;1.00;;;;;;10251762;22;20247;-68
2023/05/03 17:57:36;;;;;;;;;;;;;;;;;;;;;
2023/05/03 18:06:55;;;;;;;40.13;19.63;;;15.70;1.00;;;;;;10036112;23;20192;-69
2023/05/03 18:10:56;;;;;;;39.53;19.20;;;15.30;1.00;;;;;;10087130;22;20177;-67
2023/05/03 18:15:26;;;;;;;14.30;7.77;;;14.70;1.00;;;;;;10285609;23;20203;-69
2023/05/03 18:19:29;;;;;;;4.13;2.77;;;13.90;1.00;;;;;;10281237;23;20161;-65
2023/05/03 18:23:46;;;;;;;2.67;2.00;;;13.10;1.00;;;;;;10314933;22;20188;-67
2023/05/03 18:28:08;;;;;;;3.30;1.87;;;12.40;1.00;;;;;;10281465;23;20201;-67
2023/05/03 18:32:51;;;;;;;2.27;1.50;;;11.70;1.00;;;;;;10051166;23;20174;-69
2023/05/03 18:37:03;;;;;;;2.17;1.10;;;11.00;1.00;;;;;;10078778;23;20183;-68
2023/05/03 18:41:16;;;;;;;1.53;1.30;;;10.50;1.00;;;;;;10057721;23;20164;-67
2023/05/03 18:54:57;;;;;;;2.87;1.80;;;9.40;1.00;;;;;;10060468;23;20281;-66
2023/05/03 18:59:04;;;;;;;8.13;2.40;;;9.10;1.00;;;;;;10035707;23;20161;-68
2023/05/03 19:03:29;;;;;;;2.80;1.60;;;8.80;1.00;;;;;;10064987;23;20220;-68
2023/05/03 19:07:34;;;;;;;5.37;1.20;;;8.50;1.00;;;;;;10061638;23;20214;-67
2023/05/03 19:11:53;;;;;;;2.57;1.50;;;8.30;1.00;;;;;;10063339;23;20239;-67
2023/05/03 19:15:57;;;;;;;2.60;1.97;;;8.10;1.00;;;;;;10206260;23;20201;-67
2023/05/03 19:20:13;;;;;;;2.07;1.70;;;7.90;1.00;;;;;;10265185;23;20158;-69
2023/05/03 19:24:24;;;;;;;3.63;2.07;;;7.70;1.00;;;;;;10239874;23;20221;-69
2023/05/03 19:28:31;;;;;;;3.10;1.70;;;7.50;1.00;;;;;;10238397;23;20264;-69
2023/05/03 19:33:12;;;;;;;2.40;1.83;;;7.30;1.00;;;;;;10236744;23;20172;-68
2023/05/03 19:37:19;;;;;;;3.83;1.80;;;7.20;1.00;;;;;;10237688;23;20178;-69
2023/05/03 19:41:49;;;;;;;;;;;;;;;;;;;;;
2023/05/03 19:46:03;;;;;;;7.23;1.83;;;6.90;1.00;;;;;;10264988;23;20146;-69
2023/05/03 19:50:20;;;;;;;3.57;2.10;;;6.70;12.60;;;;;;10111721;23;20168;-67
2023/05/03 19:55:08;;;;;;;;;;;;;;;;;;;;;
2023/05/03 19:59:24;;;;;;;1.63;1.50;;;6.40;14.60;;;;;;10113892;23;20172;-69
2023/05/03 20:03:52;;;;;;;2.07;1.87;;;6.20;19.50;;;;;;10062341;23;20215;-68
2023/05/03 20:08:20;;;;;;;5.03;2.30;;;6.10;24.10;;;;;;10050129;23;20188;-70
2023/05/03 20:12:29;;;;;;;3.30;1.83;;;6.00;28.50;;;;;;10054509;23;20173;-67
2023/05/03 20:17:04;;;;;;;2.33;1.70;;;5.80;33.50;;;;;;10034749;23;20207;-68
2023/05/03 20:21:35;;;;;;;2.90;2.13;;;5.70;41.10;;;;;;10093024;23;20171;-69
2023/05/03 20:26:21;;;;;;;2.47;1.90;;;5.60;48.80;;;;;;10036507;23;20216;-66
2023/05/03 20:30:31;;;;;;;3.43;1.70;;;5.40;59.10;;;;;;9916814;23;20174;-68
2023/05/03 20:34:43;;;;;;;2.87;1.77;;;5.30;75.60;;;;;;9930823;23;20342;-69
2023/05/03 20:38:59;;;;;;;2.40;1.80;;;5.20;90.70;;;;;;10119150;23;20167;-67
2023/05/03 20:43:09;;;;;;;3.17;2.30;;;5.00;97.10;;;;;;10133371;23;20192;-67
2023/05/03 20:47:16;;;;;;;2.60;1.73;;;5.00;99.90;;;;;;10134688;23;20165;-67
2023/05/03 20:51:30;;;;;;;4.10;2.40;;;4.90;99.90;;;;;;10132615;23;20179;-67
2023/05/03 20:56:06;;;;;;;17.33;6.50;;;4.80;99.90;;;;;;10134831;23;20183;-71
2023/05/03 21:00:28;;;;;;;44.87;13.57;;;4.70;99.90;;;;;;10065880;23;20179;-68
2023/05/03 21:05:08;;;;;;;105.13;34.63;;;4.60;99.90;;;;;;10226518;22;20247;-68
2023/05/03 21:09:55;;;;;;;91.43;29.30;;;4.50;99.90;;;;;;10214834;23;20165;-70
2023/05/03 21:14:08;;;;;;;26.67;10.63;;;4.50;99.90;;;;;;10199193;23;20198;-68
2023/05/03 21:18:27;;;;;;;11.20;5.00;;;4.40;99.90;;;;;;10205096;23;20163;-68
2023/05/03 21:22:41;;;;;;;6.30;3.87;;;4.30;99.90;;;;;;10179213;23;20167;-67
2023/05/03 21:27:15;;;;;;;4.77;2.93;;;4.10;99.90;;;;;;10204630;23;20188;-67
2023/05/03 21:36:06;;;;;;;7.80;3.40;;;4.00;99.90;;;;;;10187317;23;20190;-68
2023/05/03 21:40:32;;;;;;;5.43;2.63;;;3.80;99.90;;;;;;10202198;23;20216;-68
2023/05/03 21:44:52;;;;;;;;;;;;;;;;;;;;;
2023/05/03 21:49:09;;;;;;;6.63;3.83;;;3.70;99.90;;;;;;10259351;23;20154;-69
2023/05/03 21:53:27;;;;;;;;;;;;;;;;;;;;;
2023/05/03 21:57:52;;;;;;;5.43;3.43;;;3.50;99.90;;;;;;10258401;23;20190;-70
2023/05/03 22:01:56;;;;;;;9.67;4.13;;;3.50;99.90;;;;;;10258285;23;20233;-68
2023/05/03 22:06:12;;;;;;;7.17;4.40;;;3.40;99.90;;;;;;10232634;23;20189;-69
2023/05/03 22:10:28;;;;;;;8.43;4.13;;;3.30;99.90;;;;;;10233294;23;20166;-69
2023/05/03 22:14:32;;;;;;;6.30;3.83;;;3.30;99.90;;;;;;10236311;23;20195;-68
2023/05/03 22:18:54;;;;;;;6.57;4.47;;;3.20;99.90;;;;;;10259709;23;20156;-67
2023/05/03 22:22:59;;;;;;;7.33;4.40;;;3.20;99.90;;;;;;10238787;23;20172;-69
2023/05/03 22:27:25;;;;;;;4.97;3.40;;;3.10;99.90;;;;;;10232711;23;20182;-69
2023/05/03 22:31:48;;;;;;;6.93;4.50;;;3.00;99.90;;;;;;10231783;23;20157;-69
2023/05/03 22:36:21;;;;;;;6.27;3.97;;;2.90;99.90;;;;;;10209760;23;20193;-68
2023/05/03 22:40:28;;;;;;;4.77;3.97;;;2.80;99.90;;;;;;10253196;23;20173;-69
2023/05/03 22:44:31;;;;;;;8.23;4.57;;;2.70;1.00;;;;;;10235794;23;20196;-68
2023/05/03 22:48:51;;;;;;;6.03;3.90;;;2.60;1.00;;;;;;10231887;23;20169;-69
2023/05/03 22:52:59;;;;;;;7.70;3.80;;;2.50;1.00;;;;;;10236383;23;20169;-68
2023/05/03 23:01:48;;;;;;;6.00;4.30;;;2.40;1.00;;;;;;10242206;23;20166;-70
2023/05/03 23:05:56;;;;;;;8.40;4.40;;;2.30;1.00;;;;;;10234806;23;20182;-68
2023/05/03 23:10:21;;;;;;;6.73;4.47;;;2.30;1.00;;;;;;10233159;23;20162;-69
2023/05/03 23:14:37;;;;;;;7.57;4.20;;;2.20;1.00;;;;;;10235333;23;20199;-68
2023/05/03 23:18:50;;;;;;;5.33;4.00;;;2.10;1.00;;;;;;10258586;23;20142;-70
2023/05/03 23:23:14;;;;;;;6.40;4.23;;;2.00;41.60;;;;;;10260907;23;20153;-69
2023/05/03 23:27:21;;;;;;;6.47;3.87;;;1.90;97.80;;;;;;10235674;23;20166;-70
2023/05/03 23:31:26;;;;;;;7.57;4.63;;;1.80;99.90;;;;;;10237712;23;20164;-69
2023/05/03 23:35:30;;;;;;;8.30;4.57;;;1.80;99.90;;;;;;10233359;23;20190;-69
2023/05/03 23:44:37;;;;;;;8.27;4.30;;;1.60;99.90;;;;;;10062737;23;20176;-67
2023/05/03 23:49:14;;;;;;;6.27;4.73;;;1.60;99.90;;;;;;10063120;23;20221;-69
2023/05/03 23:53:21;;;;;;;8.50;4.50;;;1.50;99.90;;;;;;10246577;23;20194;-68
2023/05/03 23:57:25;;;;;;;5.73;4.40;;;1.50;99.90;;;;;;10212597;23;20223;-69
